createdAt,value
2022-10-20T00:00:36.033Z,6.70
2022-10-20T00:03:03.875Z,6.78
2022-10-20T00:05:33.068Z,6.63
2022-10-20T00:08:00.910Z,6.28
2022-10-20T00:10:28.724Z,6.43
2022-10-20T00:12:56.453Z,6.55
2022-10-20T00:15:24.150Z,5.45
2022-10-20T00:17:51.858Z,6.32
2022-10-20T00:20:19.702Z,6.07
2022-10-20T00:22:48.752Z,6.40
2022-10-20T00:25:16.601Z,6.45
2022-10-20T00:27:44.288Z,6.43
2022-10-20T00:30:12.595Z,6.20
2022-10-20T00:32:40.370Z,5.95
2022-10-20T00:35:08.852Z,6.90
2022-10-20T00:37:36.673Z,6.50
2022-10-20T00:40:06.723Z,6.10
2022-10-20T00:42:34.777Z,6.20
2022-10-20T00:45:02.774Z,6.28
2022-10-20T00:47:39.140Z,5.80
2022-10-20T00:50:11.287Z,5.68
2022-10-20T00:52:40.976Z,6.32
2022-10-20T00:55:12.595Z,6.30
2022-10-20T00:57:40.565Z,5.65
2022-10-20T01:00:09.173Z,5.65
2022-10-20T01:02:37.379Z,5.75
2022-10-20T01:05:06.241Z,5.72
2022-10-20T01:07:34.254Z,6.03
2022-10-20T01:10:03.278Z,5.90
2022-10-20T01:12:45.127Z,5.50
2022-10-20T01:15:19.443Z,5.35
2022-10-20T01:17:55.950Z,5.72
2022-10-20T01:20:53.851Z,5.88
2022-10-20T01:23:39.011Z,6.30
2022-10-20T01:26:34.495Z,6.15
2022-10-20T01:29:10.626Z,5.97
2022-10-20T01:31:44.309Z,6.28
2022-10-20T01:34:21.499Z,5.63
2022-10-20T01:36:57.297Z,6.10
2022-10-20T01:39:31.917Z,5.72
2022-10-20T01:42:04.866Z,5.68
2022-10-20T01:44:37.528Z,5.70
2022-10-20T01:47:08.248Z,5.38
2022-10-20T01:49:36.053Z,5.47
2022-10-20T01:52:04.986Z,6.03
2022-10-20T01:54:32.677Z,5.93
2022-10-20T01:57:23.830Z,5.45
2022-10-20T02:00:03.502Z,5.28
2022-10-20T02:03:02.899Z,6.20
2022-10-20T02:05:41.292Z,5.78
2022-10-20T02:08:14.433Z,5.53
2022-10-20T02:10:47.485Z,5.40
2022-10-20T02:13:17.284Z,5.70
2022-10-20T02:15:50.355Z,5.55
2022-10-20T02:18:22.800Z,5.05
2022-10-20T02:20:56.015Z,5.32
2022-10-20T02:23:24.103Z,4.95
2022-10-20T02:25:54.327Z,5.47
2022-10-20T02:28:23.236Z,5.47
2022-10-20T02:30:52.630Z,5.30
2022-10-20T02:33:21.525Z,4.90
2022-10-20T02:35:58.015Z,5.30
2022-10-20T02:38:26.155Z,5.10
2022-10-20T02:40:53.827Z,5.45
2022-10-20T02:43:21.808Z,4.88
2022-10-20T02:45:49.621Z,5.45
2022-10-20T02:48:18.627Z,5.50
2022-10-20T02:50:46.343Z,4.95
2022-10-20T02:53:14.060Z,3.88
2022-10-20T02:55:43.111Z,5.25
2022-10-20T02:58:11.273Z,5.13
2022-10-20T03:00:39.022Z,3.63
2022-10-20T03:03:06.982Z,4.50
2022-10-20T03:05:40.187Z,5.05
2022-10-20T03:08:07.875Z,4.53
2022-10-20T03:10:37.618Z,4.47
2022-10-20T03:13:06.265Z,5.03
2022-10-20T03:15:34.156Z,4.82
2022-10-20T03:18:01.886Z,4.55
2022-10-20T03:20:29.615Z,5.25
2022-10-20T03:22:58.865Z,3.72
2022-10-20T03:25:26.652Z,4.72
2022-10-20T03:27:54.667Z,4.38
2022-10-20T03:30:22.347Z,4.15
2022-10-20T03:32:50.089Z,4.00
2022-10-20T03:35:17.860Z,4.53
2022-10-20T03:37:45.523Z,4.15
2022-10-20T03:40:14.671Z,4.45
2022-10-20T03:42:42.440Z,4.25
2022-10-20T03:45:12.685Z,5.55
2022-10-20T03:47:42.672Z,4.38
2022-10-20T03:50:10.941Z,4.70
2022-10-20T03:52:39.000Z,4.85
2022-10-20T03:55:07.453Z,4.25
2022-10-20T03:57:36.768Z,4.93
2022-10-20T04:00:05.265Z,4.45
2022-10-20T04:02:41.469Z,5.25
2022-10-20T04:05:10.307Z,3.97
2022-10-20T04:07:38.021Z,4.20
2022-10-20T04:10:06.265Z,3.53
2022-10-20T04:12:34.324Z,4.85
2022-10-20T04:15:04.408Z,4.32
2022-10-20T04:17:32.241Z,4.57
2022-10-20T04:19:59.912Z,4.40
2022-10-20T04:22:27.673Z,3.60
2022-10-20T04:24:55.387Z,3.95
2022-10-20T04:27:23.148Z,4.45
2022-10-20T04:29:50.829Z,4.90
2022-10-20T04:32:20.259Z,4.57
2022-10-20T04:34:48.055Z,4.40
2022-10-20T04:37:15.725Z,4.15
2022-10-20T04:39:43.554Z,4.72
2022-10-20T04:42:11.281Z,4.45
2022-10-20T04:44:38.920Z,4.32
2022-10-20T04:47:06.687Z,4.97
2022-10-20T04:49:35.798Z,4.47
2022-10-20T04:52:03.777Z,4.40
2022-10-20T04:54:31.577Z,4.10
2022-10-20T04:56:59.504Z,4.30
2022-10-20T04:59:27.551Z,4.40
2022-10-20T05:01:55.434Z,4.60
2022-10-20T05:04:23.232Z,3.85
2022-10-20T05:06:52.389Z,4.72
2022-10-20T05:09:20.861Z,4.18
2022-10-20T05:11:48.602Z,4.93
2022-10-20T05:14:16.341Z,4.50
2022-10-20T05:16:44.068Z,4.45
2022-10-20T05:19:12.676Z,4.63
2022-10-20T05:24:20.042Z,5.00
2022-10-20T05:26:49.758Z,4.88
2022-10-20T05:29:17.843Z,5.30
2022-10-20T05:31:45.583Z,4.32
2022-10-20T05:34:13.284Z,4.63
2022-10-20T05:36:41.055Z,4.38
2022-10-20T05:39:08.831Z,4.70
2022-10-20T05:41:39.015Z,4.78
2022-10-20T05:44:09.612Z,4.63
2022-10-20T05:46:41.758Z,4.35
2022-10-20T05:49:15.363Z,5.43
2022-10-20T05:51:43.633Z,5.05
2022-10-20T05:54:13.000Z,5.22
2022-10-20T05:56:42.320Z,4.93
2022-10-20T05:59:11.370Z,5.20
2022-10-20T06:01:47.742Z,4.75
2022-10-20T06:04:16.958Z,5.20
2022-10-20T06:06:45.239Z,5.28
2022-10-20T06:09:13.459Z,5.13
2022-10-20T06:11:42.557Z,5.22
2022-10-20T06:14:11.121Z,5.22
2022-10-20T06:16:39.493Z,5.45
2022-10-20T06:19:07.805Z,4.60
2022-10-20T06:21:36.553Z,5.20
2022-10-20T06:24:06.225Z,4.70
2022-10-20T06:26:36.548Z,5.60
2022-10-20T06:29:07.580Z,5.75
2022-10-20T06:31:38.846Z,5.85
2022-10-20T06:34:08.213Z,5.80
2022-10-20T06:36:37.081Z,5.70
2022-10-20T06:39:06.263Z,5.65
2022-10-20T06:41:34.615Z,5.70
2022-10-20T06:44:03.145Z,5.68
2022-10-20T06:46:33.704Z,5.45
2022-10-20T06:49:03.502Z,5.30
2022-10-20T06:51:31.831Z,5.50
2022-10-20T06:54:00.394Z,5.50
2022-10-20T06:56:29.853Z,5.85
2022-10-20T06:58:58.919Z,5.53
2022-10-20T07:01:27.718Z,5.50
2022-10-20T07:03:58.696Z,5.95
2022-10-20T07:06:28.409Z,6.32
2022-10-20T07:08:57.270Z,6.18
2022-10-20T07:11:27.367Z,4.78
2022-10-20T07:13:55.683Z,5.63
2022-10-20T07:16:25.055Z,5.40
2022-10-20T07:18:53.469Z,4.72
2022-10-20T07:21:24.397Z,4.70
2022-10-20T07:23:52.566Z,4.65
2022-10-20T07:26:22.557Z,5.07
2022-10-20T07:28:55.778Z,5.57
2022-10-20T07:31:25.909Z,6.07
2022-10-20T07:34:13.418Z,6.22
2022-10-20T07:36:45.212Z,4.45
2022-10-20T07:39:14.184Z,6.22
2022-10-20T07:41:45.451Z,5.20
2022-10-20T07:44:13.173Z,5.43
2022-10-20T07:46:40.928Z,5.53
2022-10-20T07:49:42.367Z,4.65
2022-10-20T07:51:58.160Z,5.55
2022-10-20T07:54:25.985Z,5.05
2022-10-20T07:56:53.697Z,5.80
2022-10-20T07:59:21.507Z,5.53
2022-10-20T08:01:49.769Z,5.18
2022-10-20T08:04:17.568Z,5.57
2022-10-20T08:06:47.125Z,5.75
2022-10-20T08:09:16.212Z,4.82
2022-10-20T08:11:43.935Z,4.63
2022-10-20T08:14:11.905Z,5.53
2022-10-20T08:22:03.718Z,5.90
2022-10-20T08:24:33.160Z,5.47
2022-10-20T08:27:01.705Z,6.40
2022-10-20T08:29:29.731Z,5.97
2022-10-20T08:31:57.817Z,6.10
2022-10-20T08:34:25.627Z,5.65
2022-10-20T08:36:53.328Z,5.65
2022-10-20T08:39:21.079Z,5.50
2022-10-20T08:42:07.964Z,6.00
2022-10-20T08:44:37.600Z,5.65
2022-10-20T08:47:15.395Z,5.55
2022-10-20T08:49:46.882Z,6.38
2022-10-20T08:52:16.244Z,6.30
2022-10-20T08:54:44.742Z,6.03
2022-10-20T08:57:23.279Z,6.20
2022-10-20T08:59:53.564Z,5.75
2022-10-20T09:02:22.605Z,6.32
2022-10-20T09:04:53.298Z,6.22
2022-10-20T09:07:27.047Z,6.47
2022-10-20T09:10:03.288Z,5.97
2022-10-20T09:12:34.494Z,6.70
2022-10-20T09:15:04.009Z,6.38
2022-10-20T09:17:31.875Z,5.35
2022-10-20T09:20:01.453Z,6.90
2022-10-20T09:22:35.544Z,6.22
2022-10-20T09:25:04.451Z,5.55
2022-10-20T09:27:37.111Z,5.88
2022-10-20T09:30:15.911Z,6.18
2022-10-20T09:32:56.676Z,5.88
2022-10-20T09:35:29.929Z,5.30
2022-10-20T09:38:05.908Z,6.13
2022-10-20T09:40:33.690Z,6.93
2022-10-20T09:43:09.793Z,6.00
2022-10-20T09:45:53.190Z,6.13
2022-10-20T09:48:25.073Z,6.10
2022-10-20T09:50:56.021Z,6.40
2022-10-20T09:53:29.037Z,6.40
2022-10-20T09:55:57.283Z,6.97
2022-10-20T09:58:30.102Z,6.45
2022-10-20T10:01:01.131Z,7.28
2022-10-20T10:03:29.150Z,6.00
2022-10-20T10:05:58.980Z,6.78
2022-10-20T10:08:29.675Z,6.88
2022-10-20T10:11:03.330Z,6.68
2022-10-20T10:13:40.289Z,6.90
2022-10-20T10:16:10.480Z,6.38
2022-10-20T10:18:39.452Z,7.55
2022-10-20T10:21:09.276Z,7.40
2022-10-20T10:23:41.312Z,8.45
2022-10-20T10:26:44.985Z,7.57
2022-10-20T10:29:25.921Z,7.27
2022-10-20T10:32:00.073Z,8.25
2022-10-20T10:34:51.184Z,7.97
2022-10-20T10:37:27.685Z,7.95
2022-10-20T10:39:57.522Z,7.88
2022-10-20T10:42:39.565Z,7.25
2022-10-20T10:45:18.579Z,7.72
2022-10-20T10:48:02.531Z,7.63
2022-10-20T10:50:38.144Z,8.40
2022-10-20T10:55:50.064Z,8.65
2022-10-20T10:58:30.880Z,8.68
2022-10-20T11:01:10.720Z,8.35
2022-10-20T11:03:53.573Z,8.65
2022-10-20T11:06:27.787Z,9.15
2022-10-20T11:09:10.724Z,8.52
2022-10-20T11:11:50.306Z,8.93
2022-10-20T11:14:34.677Z,8.63
2022-10-20T11:17:20.266Z,8.43
2022-10-20T11:20:12.172Z,8.90
2022-10-20T11:22:49.245Z,9.95
2022-10-20T11:25:29.006Z,8.88
2022-10-20T11:27:58.365Z,10.32
2022-10-20T11:30:27.388Z,9.45
2022-10-20T11:33:01.571Z,10.05
2022-10-20T11:35:35.725Z,9.45
2022-10-20T11:38:14.159Z,8.93
2022-10-20T11:40:50.047Z,9.57
2022-10-20T11:43:24.536Z,9.02
2022-10-20T11:45:56.804Z,10.73
2022-10-20T11:48:30.105Z,11.05
2022-10-20T11:51:13.145Z,10.85
2022-10-20T11:53:54.654Z,10.05
2022-10-20T11:56:47.426Z,10.75
2022-10-20T11:59:56.625Z,9.88
2022-10-20T12:02:54.565Z,10.27
2022-10-20T12:05:34.889Z,10.38
2022-10-20T12:08:30.259Z,10.02
2022-10-20T12:11:06.869Z,10.15
2022-10-20T12:13:44.751Z,9.95
2022-10-20T12:16:12.520Z,10.38
2022-10-20T12:18:40.304Z,10.88
2022-10-20T12:21:10.851Z,10.80
2022-10-20T12:24:02.333Z,11.15
2022-10-20T12:27:05.489Z,11.10
2022-10-20T12:29:58.357Z,10.02
2022-10-20T12:32:37.506Z,10.43
2022-10-20T12:35:30.300Z,10.80
2022-10-20T12:38:01.435Z,10.73
2022-10-20T12:40:33.556Z,10.52
2022-10-20T12:43:01.629Z,10.70
2022-10-20T12:45:38.228Z,10.93
2022-10-20T12:48:08.983Z,10.43
2022-10-20T12:50:39.497Z,10.63
2022-10-20T12:53:13.464Z,11.60
2022-10-20T12:55:42.550Z,12.10
2022-10-20T12:58:27.213Z,11.10
2022-10-20T13:01:11.918Z,10.73
2022-10-20T13:03:46.823Z,11.13
2022-10-20T13:06:43.246Z,10.40
2022-10-20T13:09:24.873Z,10.82
2022-10-20T13:12:25.895Z,12.55
2022-10-20T13:14:57.088Z,10.57
2022-10-20T13:17:39.037Z,10.68
2022-10-20T13:20:22.306Z,10.98
2022-10-20T13:22:53.752Z,10.85
2022-10-20T13:25:34.074Z,11.68
2022-10-20T13:28:07.694Z,11.95
2022-10-20T13:30:37.292Z,9.70
2022-10-20T13:33:33.916Z,10.85
2022-10-20T13:36:10.109Z,11.05
2022-10-20T13:38:48.785Z,10.30
2022-10-20T13:41:25.092Z,10.52
2022-10-20T13:44:04.252Z,10.23
2022-10-20T13:46:45.186Z,11.43
2022-10-20T13:49:36.250Z,11.68
2022-10-20T13:52:11.397Z,11.88
2022-10-20T13:54:44.646Z,10.40
2022-10-20T13:57:25.844Z,12.00
2022-10-20T13:59:58.624Z,11.82
2022-10-20T14:02:29.168Z,11.50
2022-10-20T14:05:06.482Z,12.93
2022-10-20T14:07:38.134Z,12.60
2022-10-20T14:10:06.802Z,11.90
2022-10-20T14:12:35.348Z,12.50
2022-10-20T14:15:11.045Z,11.35
2022-10-20T14:20:19.586Z,11.88
2022-10-20T14:22:48.233Z,10.30
2022-10-20T14:25:17.286Z,13.00
2022-10-20T14:27:47.226Z,12.50
2022-10-20T14:30:17.508Z,12.70
2022-10-20T14:32:47.837Z,13.05
2022-10-20T14:35:26.084Z,12.52
2022-10-20T14:37:58.337Z,13.82
2022-10-20T14:40:28.942Z,15.52
2022-10-20T14:43:06.707Z,13.95
2022-10-20T14:45:34.604Z,20.45
2022-10-20T14:48:03.044Z,13.60
2022-10-20T14:50:37.230Z,15.82
2022-10-20T14:53:19.341Z,12.00
2022-10-20T14:55:47.227Z,12.05
2022-10-20T14:58:35.222Z,13.80
2022-10-20T15:01:27.507Z,12.30
2022-10-20T15:04:15.098Z,12.45
2022-10-20T15:06:45.093Z,12.70
2022-10-20T15:09:19.864Z,12.27
2022-10-20T15:11:47.772Z,12.45
2022-10-20T15:14:17.619Z,12.95
2022-10-20T15:16:47.562Z,12.35
2022-10-20T15:19:35.118Z,13.82
2022-10-20T15:22:11.199Z,12.05
2022-10-20T15:24:39.679Z,12.23
2022-10-20T15:27:14.717Z,12.50
2022-10-20T15:29:49.708Z,13.68
2022-10-20T15:32:18.234Z,13.38
2022-10-20T15:34:46.210Z,13.18
2022-10-20T15:37:15.287Z,12.77
2022-10-20T15:39:44.539Z,13.55
2022-10-20T15:42:12.703Z,13.40
2022-10-20T15:44:40.374Z,13.18
2022-10-20T15:47:09.905Z,14.07
2022-10-20T15:49:37.585Z,11.77
2022-10-20T15:52:05.355Z,13.80
2022-10-20T15:54:34.387Z,13.63
2022-10-20T15:57:02.166Z,13.15
2022-10-20T15:59:29.905Z,14.20
2022-10-20T16:01:57.593Z,14.45
2022-10-20T16:04:26.894Z,14.32
2022-10-20T16:06:58.827Z,14.82
2022-10-20T16:09:29.617Z,14.68
2022-10-20T16:11:58.715Z,14.95
2022-10-20T16:14:26.396Z,15.20
2022-10-20T16:16:54.084Z,15.88
2022-10-20T16:19:21.800Z,14.18
2022-10-20T16:21:49.535Z,15.70
2022-10-20T16:24:17.313Z,14.88
2022-10-20T16:26:45.008Z,15.98
2022-10-20T16:29:14.096Z,14.75
2022-10-20T16:31:41.800Z,15.52
2022-10-20T16:34:09.691Z,15.50
2022-10-20T16:36:38.322Z,15.70
2022-10-20T16:39:06.190Z,16.13
2022-10-20T16:41:33.953Z,14.85
2022-10-20T16:44:01.606Z,16.45
2022-10-20T16:46:30.739Z,14.75
2022-10-20T16:48:58.550Z,15.75
2022-10-20T16:51:26.793Z,13.90
2022-10-20T16:53:57.373Z,14.65
2022-10-20T16:56:27.855Z,15.68
2022-10-20T16:58:55.589Z,16.17
2022-10-20T17:01:24.536Z,14.77
2022-10-20T17:03:54.637Z,14.70
2022-10-20T17:06:24.280Z,13.23
2022-10-20T17:08:53.063Z,14.93
2022-10-20T17:11:23.930Z,13.52
2022-10-20T17:13:52.359Z,14.50
2022-10-20T17:16:24.783Z,15.07
2022-10-20T17:18:57.634Z,15.77
2022-10-20T17:21:25.935Z,16.73
2022-10-20T17:23:53.724Z,15.70
2022-10-20T17:26:24.235Z,14.93
2022-10-20T17:28:55.006Z,15.13
2022-10-20T17:31:23.023Z,15.20
2022-10-20T17:33:51.405Z,15.65
2022-10-20T17:36:25.855Z,14.82
2022-10-20T17:38:56.153Z,14.13
2022-10-20T17:41:23.939Z,16.05
2022-10-20T17:43:51.758Z,15.18
2022-10-20T17:46:20.935Z,14.38
2022-10-20T17:48:49.087Z,14.65
2022-10-20T17:51:19.521Z,15.23
2022-10-20T17:53:50.407Z,14.25
2022-10-20T17:56:20.051Z,14.93
2022-10-20T17:58:49.644Z,14.60
2022-10-20T18:01:20.217Z,14.77
2022-10-20T18:03:49.604Z,15.20
2022-10-20T18:06:19.296Z,14.63
2022-10-20T18:08:49.536Z,13.85
2022-10-20T18:11:19.219Z,15.02
2022-10-20T18:13:47.653Z,14.88
2022-10-20T18:16:17.424Z,15.20
2022-10-20T18:18:45.463Z,15.88
2022-10-20T18:21:15.805Z,14.45
2022-10-20T18:23:45.774Z,15.82
2022-10-20T18:26:16.988Z,14.77
2022-10-20T18:28:48.178Z,15.40
2022-10-20T18:31:19.510Z,15.50
2022-10-20T18:33:48.158Z,15.60
2022-10-20T18:36:17.632Z,14.77
2022-10-20T18:38:46.513Z,14.77
2022-10-20T18:41:17.818Z,14.38
2022-10-20T18:43:46.398Z,15.75
2022-10-20T18:46:15.751Z,17.95
2022-10-20T18:48:44.048Z,17.98
2022-10-20T18:51:13.685Z,17.90
2022-10-20T18:53:42.861Z,18.80
2022-10-20T18:56:15.488Z,16.92
2022-10-20T18:58:48.176Z,18.50
2022-10-20T19:01:17.275Z,16.20
2022-10-20T19:03:46.640Z,16.80
2022-10-20T19:06:17.945Z,15.52
2022-10-20T19:08:48.008Z,15.55
2022-10-20T19:11:17.153Z,14.75
2022-10-20T19:13:46.092Z,15.75
2022-10-20T19:16:17.202Z,15.02
2022-10-20T19:18:46.558Z,15.98
2022-10-20T19:21:14.500Z,16.58
2022-10-20T19:23:45.887Z,15.40
2022-10-20T19:26:17.119Z,15.82
2022-10-20T19:28:48.557Z,16.20
2022-10-20T19:31:21.252Z,14.73
2022-10-20T19:33:53.014Z,16.38
2022-10-20T19:36:21.806Z,15.25
2022-10-20T19:38:49.616Z,17.10
2022-10-20T19:41:17.521Z,16.20
2022-10-20T19:43:46.647Z,14.70
2022-10-20T19:46:16.690Z,11.18
2022-10-20T19:48:45.596Z,17.13
2022-10-20T19:51:13.917Z,15.57
2022-10-20T19:53:42.045Z,14.93
2022-10-20T19:56:11.029Z,16.55
2022-10-20T19:58:42.777Z,16.42
2022-10-20T20:01:15.670Z,16.67
2022-10-20T20:03:43.779Z,14.05
2022-10-20T20:06:16.127Z,16.33
2022-10-20T20:08:44.915Z,15.10
2022-10-20T20:11:21.071Z,15.70
2022-10-20T20:13:48.788Z,13.85
2022-10-20T20:16:17.984Z,14.65
2022-10-20T20:18:45.741Z,16.65
2022-10-20T20:21:14.037Z,17.30
2022-10-20T20:23:58.221Z,15.90
2022-10-20T20:26:27.944Z,17.60
2022-10-20T20:28:56.569Z,16.48
2022-10-20T20:31:26.634Z,16.08
2022-10-20T20:33:54.761Z,15.90
2022-10-20T20:36:22.626Z,17.00
2022-10-20T20:38:52.598Z,15.68
2022-10-20T20:41:24.453Z,15.05
2022-10-20T20:43:52.235Z,16.92
2022-10-20T20:46:22.292Z,16.90
2022-10-20T20:48:52.011Z,15.68
2022-10-20T20:51:20.469Z,14.27
2022-10-20T20:53:48.206Z,16.63
2022-10-20T20:56:20.542Z,16.55
2022-10-20T20:58:55.106Z,16.40
2022-10-20T21:01:27.041Z,16.88
2022-10-20T21:03:56.937Z,16.80
2022-10-20T21:06:33.115Z,16.23
2022-10-20T21:09:07.794Z,15.68
2022-10-20T21:11:36.097Z,15.98
2022-10-20T21:14:05.166Z,15.40
2022-10-20T21:16:34.620Z,17.40
2022-10-20T21:19:06.055Z,17.10
2022-10-20T21:21:35.789Z,17.23
2022-10-20T21:24:05.367Z,16.33
2022-10-20T21:26:33.968Z,15.77
2022-10-20T21:29:01.669Z,15.88
2022-10-20T21:31:30.666Z,15.35
2022-10-20T21:34:00.029Z,15.68
2022-10-20T21:36:31.348Z,16.60
2022-10-20T21:38:59.309Z,16.63
2022-10-20T21:41:29.565Z,15.75
2022-10-20T21:43:59.165Z,15.90
2022-10-20T21:46:29.584Z,15.73
2022-10-20T21:49:00.526Z,15.80
2022-10-20T21:51:32.125Z,16.60
2022-10-20T21:54:01.319Z,17.85
2022-10-20T21:56:29.902Z,16.67
2022-10-20T21:58:57.716Z,16.73
2022-10-20T22:01:26.509Z,16.25
2022-10-20T22:03:55.285Z,15.18
2022-10-20T22:06:25.340Z,15.23
2022-10-20T22:08:56.346Z,15.43
2022-10-20T22:11:26.486Z,15.02
2022-10-20T22:13:54.662Z,14.88
2022-10-20T22:16:24.540Z,15.20
2022-10-20T22:18:55.799Z,14.23
2022-10-20T22:21:24.111Z,14.82
2022-10-20T22:23:55.340Z,13.98
2022-10-20T22:26:25.636Z,14.48
2022-10-20T22:28:53.806Z,13.00
2022-10-20T22:31:21.578Z,14.43
2022-10-20T22:33:49.568Z,13.80
2022-10-20T22:36:17.455Z,14.23
2022-10-20T22:38:45.292Z,13.27
2022-10-20T22:41:14.709Z,13.05
2022-10-20T22:43:42.700Z,12.65
2022-10-20T22:46:10.489Z,12.52
2022-10-20T22:48:38.237Z,11.63
2022-10-20T22:51:06.409Z,11.45
2022-10-20T22:53:34.249Z,11.07
2022-10-20T22:56:06.620Z,11.90
2022-10-20T22:58:36.354Z,13.07
2022-10-20T23:01:08.050Z,12.63
2022-10-20T23:03:35.885Z,11.50
2022-10-20T23:06:07.517Z,12.65
2022-10-20T23:08:39.173Z,11.32
2022-10-20T23:11:07.014Z,12.15
2022-10-20T23:13:36.341Z,11.23
2022-10-20T23:16:04.943Z,12.23
2022-10-20T23:18:32.776Z,11.95
2022-10-20T23:21:00.601Z,11.50
2022-10-20T23:23:28.792Z,12.32
2022-10-20T23:25:58.460Z,12.35
2022-10-20T23:28:28.699Z,12.18
2022-10-20T23:31:10.339Z,12.20
2022-10-20T23:33:38.842Z,11.70
2022-10-20T23:36:07.151Z,9.80
2022-10-20T23:38:35.068Z,11.45
2022-10-20T23:41:03.035Z,12.00
2022-10-20T23:43:30.866Z,10.32
2022-10-20T23:45:59.077Z,11.10
2022-10-20T23:48:28.303Z,10.45
2022-10-20T23:50:56.513Z,9.88
2022-10-20T23:53:24.833Z,9.07
2022-10-20T23:55:52.788Z,8.82
2022-10-20T23:58:22.716Z,9.52
